Weymouth, United Kingdom

8:56 AM GMT on December 28, 2014 (GMT +0000)
Weymouth Harborside | Change Station
CLOSE
Current Station
Personal Weather Station
Location: Weymouth,
Elevation: 23 ft
Nearby Weather Stations

Elev 23 ft 50.61 °N, 2.45 °W | Updated 4 minutes ago

Clear
Clear
35.6 °F
Feels Like 36 °F
N
0.5
Wind Variable Wind from SE
Gusts 5.4 mph

Today
High -- | Low -- °F
--% Chance of Precip.
Yesterday
High -- | Low -- °F
Precip. -- in
8:10 AM 4:11 PM
Waxing Crescent, 45% visible
Pressure 30.36 in
Visibility -9999.0 miles
Clouds
Windchill 36 °F
Dew Point 28 °F
Humidity 74%
Rainfall 0.00 in
Snow Depth Not available.
UV Not available.
Pollen Not available.
Air Quality Not available.
Flu Activity Not available.
METAR EGHH 280850Z 35007KT CAVOK M01/M03 Q1028

More Conditions Fewer Conditions

Pressure 30.36 in
Visibility -9999.0 miles
Clouds
Windchill 36 °F
Dew Point 28 °F
Humidity 74%
Rainfall 0.00 in
Snow Depth Not available.
UV Not available.
Pollen Not available.
Air Quality Not available.
Flu Activity Not available.
METAR EGHH 280850Z 35007KT CAVOK M01/M03 Q1028

More Conditions Fewer Conditions

10-Day Weather Forecast

Almanac

Astronomy

Dec. 28, 2014 Rise Set
Actual Time
Civil Twilight
Nautical Twilight
Astronomical Twilight
Moon
Length of Visible Light
Length of Day
Tomorrow will be .
, % of the Moon is Illuminated

Today's Extremes

Country Highs Country Lows

Community

WunderPhotos

Upload Photos

1,781,210 photos uploaded!

WunderBlogs® & News

Nearby

Air Quality

  Air Quality AQ Index Pollutant
Not available.

Snow Depth

Station Depth Elevation

Earthquake Activity

City Distance Mag. Time & Date
Minimum magnitude displayed is 2.5.

Coastal Water Temperatures

Place Temperature

Nearby Weather Stations